sensor_id;sensor_type;location;lat;lon;timestamp;pressure;altitude;pressure_sealevel;temperature;humidity
7168;BME280;3625;51.762;14.320;2023-04-01T00:01:20;98826.84;;;9.88;100.00
7168;BME280;3625;51.762;14.320;2023-04-01T00:03:50;98827.69;;;9.88;100.00
7168;BME280;3625;51.762;14.320;2023-04-01T00:06:18;98829.34;;;9.91;100.00
7168;BME280;3625;51.762;14.320;2023-04-01T00:08:47;98825.78;;;9.92;100.00
7168;BME280;3625;51.762;14.320;2023-04-01T00:11:17;98827.50;;;9.93;100.00
7168;BME280;3625;51.762;14.320;2023-04-01T00:13:47;98796.59;;;9.76;100.00
7168;BME280;3625;51.762;14.320;2023-04-01T00:16:15;98829.22;;;9.94;100.00
7168;BME280;3625;51.762;14.320;2023-04-01T00:18:51;98759.66;;;9.56;100.00
7168;BME280;3625;51.762;14.320;2023-04-01T00:21:21;98826.47;;;9.95;100.00
7168;BME280;3625;51.762;14.320;2023-04-01T00:23:52;98819.94;;;9.85;100.00
7168;BME280;3625;51.762;14.320;2023-04-01T00:26:21;98822.22;;;9.93;100.00
7168;BME280;3625;51.762;14.320;2023-04-01T00:28:50;98829.13;;;9.95;100.00
7168;BME280;3625;51.762;14.320;2023-04-01T00:31:19;98636.31;;;8.83;100.00
7168;BME280;3625;51.762;14.320;2023-04-01T00:33:47;98771.28;;;9.70;100.00
7168;BME280;3625;51.762;14.320;2023-04-01T00:36:20;98787.63;;;9.78;100.00
7168;BME280;3625;51.762;14.320;2023-04-01T00:38:50;98816.66;;;9.99;100.00
7168;BME280;3625;51.762;14.320;2023-04-01T00:41:20;98803.06;;;9.88;100.00
7168;BME280;3625;51.762;14.320;2023-04-01T00:43:51;98826.34;;;9.98;100.00
7168;BME280;3625;51.762;14.320;2023-04-01T00:46:20;98831.63;;;9.98;100.00
7168;BME280;3625;51.762;14.320;2023-04-01T00:48:52;98771.34;;;9.69;100.00
7168;BME280;3625;51.762;14.320;2023-04-01T00:51:26;98801.50;;;9.83;100.00
7168;BME280;3625;51.762;14.320;2023-04-01T00:53:58;98824.44;;;10.02;100.00
7168;BME280;3625;51.762;14.320;2023-04-01T00:56:34;98784.94;;;9.80;100.00
7168;BME280;3625;51.762;14.320;2023-04-01T00:59:08;98785.72;;;9.82;100.00
7168;BME280;3625;51.762;14.320;2023-04-01T01:01:39;98779.03;;;9.75;100.00
7168;BME280;3625;51.762;14.320;2023-04-01T01:04:21;98823.34;;;10.06;100.00
7168;BME280;3625;51.762;14.320;2023-04-01T01:07:02;98778.00;;;9.77;100.00
7168;BME280;3625;51.762;14.320;2023-04-01T01:09:45;98724.19;;;9.42;100.00
7168;BME280;3625;51.762;14.320;2023-04-01T01:12:19;98768.66;;;9.70;100.00
7168;BME280;3625;51.762;14.320;2023-04-01T01:15:01;98823.66;;;10.00;100.00
7168;BME280;3625;51.762;14.320;2023-04-01T01:17:44;98824.63;;;9.97;100.00
7168;BME280;3625;51.762;14.320;2023-04-01T01:27:03;98795.00;;;9.72;100.00
7168;BME280;3625;51.762;14.320;2023-04-01T01:30:10;98825.06;;;9.88;100.00
7168;BME280;3625;51.762;14.320;2023-04-01T01:33:09;98800.41;;;9.69;100.00
7168;BME280;3625;51.762;14.320;2023-04-01T01:35:47;98840.28;;;9.83;100.00
7168;BME280;3625;51.762;14.320;2023-04-01T01:38:23;98827.97;;;9.82;100.00
7168;BME280;3625;51.762;14.320;2023-04-01T01:41:01;98736.28;;;9.28;100.00
7168;BME280;3625;51.762;14.320;2023-04-01T01:43:37;98764.91;;;9.37;100.00
7168;BME280;3625;51.762;14.320;2023-04-01T01:46:11;98830.06;;;9.75;100.00
7168;BME280;3625;51.762;14.320;2023-04-01T01:48:43;98817.25;;;9.66;100.00
7168;BME280;3625;51.762;14.320;2023-04-01T01:51:14;98828.34;;;9.74;100.00
7168;BME280;3625;51.762;14.320;2023-04-01T01:53:43;98813.75;;;9.66;100.00
7168;BME280;3625;51.762;14.320;2023-04-01T01:56:13;98787.97;;;9.52;100.00
7168;BME280;3625;51.762;14.320;2023-04-01T01:58:45;98824.59;;;9.78;100.00
7168;BME280;3625;51.762;14.320;2023-04-01T02:01:24;98830.00;;;9.77;100.00
7168;BME280;3625;51.762;14.320;2023-04-01T02:03:58;98822.06;;;9.77;100.00
7168;BME280;3625;51.762;14.320;2023-04-01T02:06:34;98830.91;;;9.76;100.00
7168;BME280;3625;51.762;14.320;2023-04-01T02:09:07;98812.91;;;9.65;100.00
7168;BME280;3625;51.762;14.320;2023-04-01T02:11:43;98830.81;;;9.77;100.00
7168;BME280;3625;51.762;14.320;2023-04-01T02:14:16;98827.34;;;9.77;100.00
7168;BME280;3625;51.762;14.320;2023-04-01T02:16:51;98827.47;;;9.74;100.00
7168;BME280;3625;51.762;14.320;2023-04-01T02:19:26;98807.16;;;9.56;100.00
7168;BME280;3625;51.762;14.320;2023-04-01T02:22:02;98830.91;;;9.76;100.00
7168;BME280;3625;51.762;14.320;2023-04-01T02:24:35;98835.28;;;9.77;100.00
7168;BME280;3625;51.762;14.320;2023-04-01T02:27:05;98844.00;;;9.77;100.00
7168;BME280;3625;51.762;14.320;2023-04-01T02:29:34;98843.88;;;9.80;100.00
7168;BME280;3625;51.762;14.320;2023-04-01T02:32:08;98836.81;;;9.81;100.00
7168;BME280;3625;51.762;14.320;2023-04-01T02:34:38;98835.78;;;9.85;100.00
7168;BME280;3625;51.762;14.320;2023-04-01T02:37:09;98841.06;;;9.85;100.00
7168;BME280;3625;51.762;14.320;2023-04-01T02:39:39;98811.06;;;9.67;100.00
7168;BME280;3625;51.762;14.320;2023-04-01T02:42:13;98806.75;;;9.65;100.00
7168;BME280;3625;51.762;14.320;2023-04-01T02:44:41;98834.31;;;9.78;100.00
7168;BME280;3625;51.762;14.320;2023-04-01T02:47:10;98815.59;;;9.64;100.00
7168;BME280;3625;51.762;14.320;2023-04-01T02:49:38;98848.19;;;9.83;100.00
7168;BME280;3625;51.762;14.320;2023-04-01T02:52:08;98812.56;;;9.53;100.00
7168;BME280;3625;51.762;14.320;2023-04-01T02:54:37;98858.88;;;9.80;100.00
7168;BME280;3625;51.762;14.320;2023-04-01T02:57:07;98858.88;;;9.80;100.00
7168;BME280;3625;51.762;14.320;2023-04-01T02:59:35;98863.25;;;9.81;100.00
7168;BME280;3625;51.762;14.320;2023-04-01T03:02:04;98867.66;;;9.80;100.00
7168;BME280;3625;51.762;14.320;2023-04-01T03:04:33;98806.72;;;9.46;100.00
7168;BME280;3625;51.762;14.320;2023-04-01T03:07:02;98815.31;;;9.51;100.00
7168;BME280;3625;51.762;14.320;2023-04-01T03:09:32;98863.25;;;9.81;100.00
7168;BME280;3625;51.762;14.320;2023-04-01T03:12:01;98865.03;;;9.80;100.00
7168;BME280;3625;51.762;14.320;2023-04-01T03:14:33;98830.81;;;9.59;100.00
7168;BME280;3625;51.762;14.320;2023-04-01T03:17:02;98864.22;;;9.78;100.00
7168;BME280;3625;51.762;14.320;2023-04-01T03:19:30;98869.38;;;9.81;100.00
7168;BME280;3625;51.762;14.320;2023-04-01T03:22:03;98839.44;;;9.62;100.00
7168;BME280;3625;51.762;14.320;2023-04-01T03:24:33;98778.66;;;9.25;100.00
7168;BME280;3625;51.762;14.320;2023-04-01T03:27:01;98873.88;;;9.79;100.00
7168;BME280;3625;51.762;14.320;2023-04-01T03:29:30;98873.06;;;9.77;100.00
7168;BME280;3625;51.762;14.320;2023-04-01T03:32:00;98874.03;;;9.76;100.00
7168;BME280;3625;51.762;14.320;2023-04-01T03:34:28;98871.28;;;9.78;100.00
7168;BME280;3625;51.762;14.320;2023-04-01T03:36:57;98858.81;;;9.61;100.00
7168;BME280;3625;51.762;14.320;2023-04-01T03:39:26;98856.19;;;9.61;100.00
7168;BME280;3625;51.762;14.320;2023-04-01T03:41:56;98878.50;;;9.74;100.00
7168;BME280;3625;51.762;14.320;2023-04-01T03:44:24;98869.72;;;9.74;100.00
7168;BME280;3625;51.762;14.320;2023-04-01T03:46:56;98882.94;;;9.74;100.00
7168;BME280;3625;51.762;14.320;2023-04-01T03:49:24;98883.78;;;9.74;100.00
7168;BME280;3625;51.762;14.320;2023-04-01T03:51:53;98888.22;;;9.74;100.00
7168;BME280;3625;51.762;14.320;2023-04-01T03:54:22;98891.72;;;9.74;100.00
7168;BME280;3625;51.762;14.320;2023-04-01T03:56:51;98889.13;;;9.73;100.00
7168;BME280;3625;51.762;14.320;2023-04-01T03:59:21;98895.41;;;9.70;100.00
7168;BME280;3625;51.762;14.320;2023-04-01T04:01:49;98874.88;;;9.57;100.00
7168;BME280;3625;51.762;14.320;2023-04-01T04:04:18;98897.28;;;9.68;100.00
7168;BME280;3625;51.762;14.320;2023-04-01T04:06:47;98896.25;;;9.71;100.00
7168;BME280;3625;51.762;14.320;2023-04-01T04:09:17;98899.03;;;9.68;100.00
7168;BME280;3625;51.762;14.320;2023-04-01T04:11:48;98904.22;;;9.69;100.00
7168;BME280;3625;51.762;14.320;2023-04-01T04:14:16;98904.38;;;9.66;100.00
7168;BME280;3625;51.762;14.320;2023-04-01T04:16:48;98907.94;;;9.65;100.00
7168;BME280;3625;51.762;14.320;2023-04-01T04:19:16;98820.56;;;9.11;100.00
7168;BME280;3625;51.762;14.320;2023-04-01T04:21:44;98913.22;;;9.65;100.00
7168;BME280;3625;51.762;14.320;2023-04-01T04:24:16;98800.06;;;8.97;100.00
7168;BME280;3625;51.762;14.320;2023-04-01T04:26:58;98913.22;;;9.65;100.00
7168;BME280;3625;51.762;14.320;2023-04-01T04:29:26;98916.72;;;9.66;100.00
7168;BME280;3625;51.762;14.320;2023-04-01T04:31:56;98920.28;;;9.65;100.00
7168;BME280;3625;51.762;14.320;2023-04-01T04:34:27;98912.38;;;9.65;100.00
7168;BME280;3625;51.762;14.320;2023-04-01T04:36:56;98916.78;;;9.64;100.00
7168;BME280;3625;51.762;14.320;2023-04-01T04:39:29;98876.59;;;9.37;100.00
7168;BME280;3625;51.762;14.320;2023-04-01T04:41:58;98917.59;;;9.66;100.00
7168;BME280;3625;51.762;14.320;2023-04-01T04:44:28;98925.44;;;9.68;100.00
7168;BME280;3625;51.762;14.320;2023-04-01T04:47:02;98846.78;;;9.15;100.00
7168;BME280;3625;51.762;14.320;2023-04-01T04:49:32;98805.59;;;8.91;100.00
7168;BME280;3625;51.762;14.320;2023-04-01T04:52:05;98785.13;;;8.76;100.00
7168;BME280;3625;51.762;14.320;2023-04-01T04:54:34;98841.56;;;9.14;100.00
7168;BME280;3625;51.762;14.320;2023-04-01T04:57:04;98859.50;;;9.26;100.00
7168;BME280;3625;51.762;14.320;2023-04-01T04:59:39;98679.44;;;8.19;100.00
7168;BME280;3625;51.762;14.320;2023-04-01T05:02:36;98935.00;;;9.70;100.00
7168;BME280;3625;51.762;14.320;2023-04-01T05:05:06;98940.28;;;9.70;100.00
7168;BME280;3625;51.762;14.320;2023-04-01T05:07:35;98944.66;;;9.71;100.00
7168;BME280;3625;51.762;14.320;2023-04-01T05:10:05;98947.22;;;9.73;100.00
7168;BME280;3625;51.762;14.320;2023-04-01T05:12:33;98852.91;;;9.16;100.00
7168;BME280;3625;51.762;14.320;2023-04-01T05:15:07;98796.03;;;8.88;100.00
7168;BME280;3625;51.762;14.320;2023-04-01T05:17:38;98868.75;;;9.36;100.00
7168;BME280;3625;51.762;14.320;2023-04-01T05:20:11;98837.63;;;9.24;100.00
7168;BME280;3625;51.762;14.320;2023-04-01T05:22:40;98902.44;;;9.70;100.00
7168;BME280;3625;51.762;14.320;2023-04-01T05:25:09;98854.34;;;9.43;100.00
7168;BME280;3625;51.762;14.320;2023-04-01T05:27:38;98931.16;;;9.98;100.00
7168;BME280;3625;51.762;14.320;2023-04-01T05:30:08;98953.09;;;10.20;100.00
7168;BME280;3625;51.762;14.320;2023-04-01T05:32:53;98956.84;;;10.35;100.00
7168;BME280;3625;51.762;14.320;2023-04-01T05:35:24;98879.19;;;9.98;100.00
7168;BME280;3625;51.762;14.320;2023-04-01T05:37:53;98971.69;;;10.56;100.00
7168;BME280;3625;51.762;14.320;2023-04-01T05:40:21;98832.00;;;9.91;100.00
7168;BME280;3625;51.762;14.320;2023-04-01T05:42:51;98959.56;;;10.71;100.00
7168;BME280;3625;51.762;14.320;2023-04-01T05:45:19;98966.97;;;10.81;100.00
7168;BME280;3625;51.762;14.320;2023-04-01T05:48:08;98901.53;;;10.49;100.00
7168;BME280;3625;51.762;14.320;2023-04-01T05:50:40;98930.19;;;10.77;100.00
7168;BME280;3625;51.762;14.320;2023-04-01T05:53:11;98834.34;;;10.15;100.00
7168;BME280;3625;51.762;14.320;2023-04-01T05:55:44;98716.63;;;9.54;100.00
7168;BME280;3625;51.762;14.320;2023-04-01T05:58:13;98800.25;;;10.11;100.00
7168;BME280;3625;51.762;14.320;2023-04-01T06:00:46;98978.81;;;11.29;100.00
7168;BME280;3625;51.762;14.320;2023-04-01T06:03:31;98958.63;;;11.26;100.00
7168;BME280;3625;51.762;14.320;2023-04-01T06:06:00;98982.03;;;11.53;100.00
7168;BME280;3625;51.762;14.320;2023-04-01T06:08:31;98830.63;;;10.57;100.00
7168;BME280;3625;51.762;14.320;2023-04-01T06:11:16;98900.69;;;11.03;100.00
7168;BME280;3625;51.762;14.320;2023-04-01T06:14:06;98906.00;;;11.20;100.00
7168;BME280;3625;51.762;14.320;2023-04-01T06:16:58;98869.53;;;10.91;100.00
7168;BME280;3625;51.762;14.320;2023-04-01T06:19:47;98928.13;;;11.37;100.00
7168;BME280;3625;51.762;14.320;2023-04-01T06:22:37;98838.34;;;10.80;100.00
7168;BME280;3625;51.762;14.320;2023-04-01T06:25:42;98842.00;;;10.95;100.00
7168;BME280;3625;51.762;14.320;2023-04-01T06:29:09;99001.28;;;12.09;100.00
7168;BME280;3625;51.762;14.320;2023-04-01T06:35:20;98975.81;;;12.23;100.00
7168;BME280;3625;51.762;14.320;2023-04-01T06:38:24;99011.56;;;12.48;100.00
7168;BME280;3625;51.762;14.320;2023-04-01T06:44:25;98967.41;;;12.15;100.00
7168;BME280;3625;51.762;14.320;2023-04-01T06:47:35;99011.53;;;12.33;100.00
7168;BME280;3625;51.762;14.320;2023-04-01T06:50:54;99022.75;;;12.21;100.00
7168;BME280;3625;51.762;14.320;2023-04-01T06:53:51;98995.88;;;12.11;100.00
7168;BME280;3625;51.762;14.320;2023-04-01T06:56:45;99034.94;;;12.07;100.00
7168;BME280;3625;51.762;14.320;2023-04-01T06:59:27;99031.66;;;12.20;100.00
7168;BME280;3625;51.762;14.320;2023-04-01T07:02:01;99023.00;;;12.16;100.00
7168;BME280;3625;51.762;14.320;2023-04-01T07:04:38;99024.72;;;12.34;100.00
7168;BME280;3625;51.762;14.320;2023-04-01T07:07:19;99019.13;;;12.72;100.00
7168;BME280;3625;51.762;14.320;2023-04-01T07:09:58;99024.00;;;12.97;100.00
7168;BME280;3625;51.762;14.320;2023-04-01T07:12:41;99027.56;;;13.29;100.00
7168;BME280;3625;51.762;14.320;2023-04-01T07:15:36;98990.59;;;13.24;100.00
7168;BME280;3625;51.762;14.320;2023-04-01T07:18:18;99033.09;;;13.55;100.00
7168;BME280;3625;51.762;14.320;2023-04-01T07:20:51;99026.06;;;13.54;100.00
7168;BME280;3625;51.762;14.320;2023-04-01T07:23:26;99034.13;;;13.37;100.00
7168;BME280;3625;51.762;14.320;2023-04-01T07:26:17;98987.38;;;13.19;100.00
7168;BME280;3625;51.762;14.320;2023-04-01T07:29:11;99032.09;;;13.88;100.00
7168;BME280;3625;51.762;14.320;2023-04-01T07:32:32;99038.56;;;14.28;100.00
7168;BME280;3625;51.762;14.320;2023-04-01T07:35:17;99043.69;;;14.31;100.00
7168;BME280;3625;51.762;14.320;2023-04-01T07:38:13;98975.31;;;13.89;100.00
7168;BME280;3625;51.762;14.320;2023-04-01T07:40:54;99052.16;;;14.23;100.00
7168;BME280;3625;51.762;14.320;2023-04-01T07:43:44;99057.28;;;13.96;100.00
7168;BME280;3625;51.762;14.320;2023-04-01T07:46:45;99052.78;;;13.67;100.00
7168;BME280;3625;51.762;14.320;2023-04-01T07:49:25;99062.22;;;13.41;100.00
7168;BME280;3625;51.762;14.320;2023-04-01T07:52:04;99057.69;;;13.43;100.00
7168;BME280;3625;51.762;14.320;2023-04-01T07:54:45;99026.41;;;13.33;100.00
7168;BME280;3625;51.762;14.320;2023-04-01T07:57:24;99055.03;;;13.43;100.00
7168;BME280;3625;51.762;14.320;2023-04-01T08:00:02;99067.66;;;13.40;100.00
7168;BME280;3625;51.762;14.320;2023-04-01T08:06:15;98977.97;;;13.13;100.00
7168;BME280;3625;51.762;14.320;2023-04-01T08:08:59;99069.94;;;13.62;100.00
7168;BME280;3625;51.762;14.320;2023-04-01T08:11:52;99009.09;;;13.41;100.00
7168;BME280;3625;51.762;14.320;2023-04-01T08:14:58;99074.34;;;14.08;100.00
7168;BME280;3625;51.762;14.320;2023-04-01T08:18:16;99039.38;;;14.00;100.00
7168;BME280;3625;51.762;14.320;2023-04-01T08:20:56;99028.13;;;13.95;100.00
7168;BME280;3625;51.762;14.320;2023-04-01T08:23:30;99075.09;;;14.40;100.00
7168;BME280;3625;51.762;14.320;2023-04-01T08:26:06;99081.59;;;14.50;100.00
7168;BME280;3625;51.762;14.320;2023-04-01T08:28:46;99087.56;;;14.54;100.00
7168;BME280;3625;51.762;14.320;2023-04-01T08:31:26;99080.91;;;14.47;100.00
7168;BME280;3625;51.762;14.320;2023-04-01T08:34:03;98946.03;;;13.45;100.00
7168;BME280;3625;51.762;14.320;2023-04-01T08:36:37;99086.09;;;14.34;100.00
7168;BME280;3625;51.762;14.320;2023-04-01T08:39:17;99084.94;;;14.68;100.00
7168;BME280;3625;51.762;14.320;2023-04-01T08:42:31;99064.50;;;14.68;100.00
7168;BME280;3625;51.762;14.320;2023-04-01T08:45:31;99076.97;;;14.96;100.00
7168;BME280;3625;51.762;14.320;2023-04-01T08:48:31;99069.03;;;15.23;100.00
7168;BME280;3625;51.762;14.320;2023-04-01T08:55:27;99106.78;;;15.72;88.44
7168;BME280;3625;51.762;14.320;2023-04-01T08:58:36;99089.16;;;15.70;89.87
7168;BME280;3625;51.762;14.320;2023-04-01T09:01:35;99106.06;;;15.83;87.18
7168;BME280;3625;51.762;14.320;2023-04-01T09:04:46;99098.22;;;16.21;87.31
7168;BME280;3625;51.762;14.320;2023-04-01T09:07:34;99054.78;;;15.92;85.86
7168;BME280;3625;51.762;14.320;2023-04-01T09:14:45;99115.06;;;15.39;86.02
7168;BME280;3625;51.762;14.320;2023-04-01T09:17:58;99108.91;;;14.82;89.61
7168;BME280;3625;51.762;14.320;2023-04-01T09:24:39;99111.03;;;14.47;92.25
7168;BME280;3625;51.762;14.320;2023-04-01T09:27:25;99109.88;;;13.76;99.66
7168;BME280;3625;51.762;14.320;2023-04-01T09:30:33;99116.84;;;13.31;100.00
7168;BME280;3625;51.762;14.320;2023-04-01T09:36:47;99110.63;;;12.98;100.00
7168;BME280;3625;51.762;14.320;2023-04-01T09:39:36;99112.13;;;13.03;100.00
7168;BME280;3625;51.762;14.320;2023-04-01T09:42:42;99052.72;;;12.89;100.00
7168;BME280;3625;51.762;14.320;2023-04-01T09:45:44;99115.72;;;13.51;100.00
7168;BME280;3625;51.762;14.320;2023-04-01T09:48:44;99066.00;;;13.53;100.00
7168;BME280;3625;51.762;14.320;2023-04-01T09:51:30;99051.88;;;13.52;100.00
7168;BME280;3625;51.762;14.320;2023-04-01T09:54:31;99128.31;;;13.79;100.00
7168;BME280;3625;51.762;14.320;2023-04-01T09:57:41;99119.22;;;13.51;100.00
7168;BME280;3625;51.762;14.320;2023-04-01T10:04:49;99020.78;;;12.74;100.00
7168;BME280;3625;51.762;14.320;2023-04-01T10:08:12;99123.88;;;13.48;100.00
7168;BME280;3625;51.762;14.320;2023-04-01T10:14:47;99134.41;;;13.81;100.00
7168;BME280;3625;51.762;14.320;2023-04-01T10:18:24;99136.97;;;13.98;100.00
7168;BME280;3625;51.762;14.320;2023-04-01T10:21:29;99131.84;;;14.25;100.00
7168;BME280;3625;51.762;14.320;2023-04-01T10:24:50;99132.06;;;14.52;99.65
7168;BME280;3625;51.762;14.320;2023-04-01T10:27:47;99061.16;;;14.51;97.49
7168;BME280;3625;51.762;14.320;2023-04-01T10:34:39;99144.75;;;16.17;89.18
7168;BME280;3625;51.762;14.320;2023-04-01T10:37:41;99149.53;;;16.51;85.27
7168;BME280;3625;51.762;14.320;2023-04-01T10:40:37;99117.66;;;16.88;83.94
7168;BME280;3625;51.762;14.320;2023-04-01T10:44:26;99147.69;;;17.55;80.22
7168;BME280;3625;51.762;14.320;2023-04-01T10:50:53;99155.78;;;18.02;73.87
7168;BME280;3625;51.762;14.320;2023-04-01T10:53:49;99131.84;;;17.52;73.53
7168;BME280;3625;51.762;14.320;2023-04-01T11:01:14;99109.84;;;15.52;81.01
7168;BME280;3625;51.762;14.320;2023-04-01T11:15:15;99162.91;;;16.51;82.31
7168;BME280;3625;51.762;14.320;2023-04-01T11:22:36;99167.28;;;17.17;74.22
7168;BME280;3625;51.762;14.320;2023-04-01T11:25:42;99161.69;;;17.46;74.61
7168;BME280;3625;51.762;14.320;2023-04-01T11:29:22;99160.41;;;17.64;71.53
7168;BME280;3625;51.762;14.320;2023-04-01T11:32:12;99167.34;;;17.79;70.99
7168;BME280;3625;51.762;14.320;2023-04-01T11:35:08;99167.25;;;17.68;69.88
7168;BME280;3625;51.762;14.320;2023-04-01T11:37:55;99166.03;;;17.85;70.31
7168;BME280;3625;51.762;14.320;2023-04-01T11:40:59;99171.06;;;17.89;68.85
7168;BME280;3625;51.762;14.320;2023-04-01T11:44:16;99173.75;;;17.77;69.73
7168;BME280;3625;51.762;14.320;2023-04-01T11:47:45;99168.88;;;17.94;68.31
7168;BME280;3625;51.762;14.320;2023-04-01T11:50:28;99138.13;;;18.00;69.87
7168;BME280;3625;51.762;14.320;2023-04-01T11:53:23;99167.59;;;18.24;66.56
7168;BME280;3625;51.762;14.320;2023-04-01T11:56:11;99187.41;;;18.45;66.48
7168;BME280;3625;51.762;14.320;2023-04-01T11:59:17;99181.28;;;18.91;65.97
7168;BME280;3625;51.762;14.320;2023-04-01T12:01:59;99188.97;;;18.84;61.81
7168;BME280;3625;51.762;14.320;2023-04-01T12:08:04;99194.72;;;19.02;59.54
7168;BME280;3625;51.762;14.320;2023-04-01T12:10:45;99196.59;;;18.77;58.17
7168;BME280;3625;51.762;14.320;2023-04-01T12:13:38;99210.28;;;18.62;58.74
7168;BME280;3625;51.762;14.320;2023-04-01T12:16:26;99195.22;;;18.48;59.49
7168;BME280;3625;51.762;14.320;2023-04-01T12:19:08;99187.88;;;18.39;61.86
7168;BME280;3625;51.762;14.320;2023-04-01T12:21:47;99150.38;;;17.91;59.35
7168;BME280;3625;51.762;14.320;2023-04-01T12:24:56;99188.63;;;17.81;61.22
7168;BME280;3625;51.762;14.320;2023-04-01T12:27:56;99196.47;;;17.71;62.05
7168;BME280;3625;51.762;14.320;2023-04-01T12:30:53;99187.78;;;17.67;61.84
7168;BME280;3625;51.762;14.320;2023-04-01T12:34:00;99161.56;;;17.47;63.55
7168;BME280;3625;51.762;14.320;2023-04-01T12:36:47;99194.75;;;17.70;63.04
7168;BME280;3625;51.762;14.320;2023-04-01T12:39:47;99171.84;;;17.66;63.43
7168;BME280;3625;51.762;14.320;2023-04-01T12:42:41;99195.06;;;18.15;61.21
7168;BME280;3625;51.762;14.320;2023-04-01T12:45:28;99193.63;;;18.58;60.40
7168;BME280;3625;51.762;14.320;2023-04-01T12:51:53;99202.09;;;18.76;56.38
7168;BME280;3625;51.762;14.320;2023-04-01T12:55:17;99197.47;;;18.89;55.02
7168;BME280;3625;51.762;14.320;2023-04-01T12:58:42;99198.72;;;18.85;54.82
7168;BME280;3625;51.762;14.320;2023-04-01T13:01:44;99209.09;;;18.42;55.97
7168;BME280;3625;51.762;14.320;2023-04-01T13:04:57;99177.84;;;17.44;58.46
7168;BME280;3625;51.762;14.320;2023-04-01T13:08:00;99189.75;;;16.63;62.40
7168;BME280;3625;51.762;14.320;2023-04-01T13:11:02;99169.72;;;15.75;69.43
7168;BME280;3625;51.762;14.320;2023-04-01T13:14:15;99216.22;;;15.57;73.58
7168;BME280;3625;51.762;14.320;2023-04-01T13:17:03;99217.38;;;15.08;82.41
7168;BME280;3625;51.762;14.320;2023-04-01T13:19:45;99218.81;;;14.70;85.28
7168;BME280;3625;51.762;14.320;2023-04-01T13:22:49;99213.19;;;14.29;90.23
7168;BME280;3625;51.762;14.320;2023-04-01T13:25:27;99203.25;;;14.17;91.72
7168;BME280;3625;51.762;14.320;2023-04-01T13:28:13;99218.38;;;14.16;91.67
7168;BME280;3625;51.762;14.320;2023-04-01T13:30:55;99222.41;;;13.92;93.04
7168;BME280;3625;51.762;14.320;2023-04-01T13:33:36;99219.69;;;13.60;97.70
7168;BME280;3625;51.762;14.320;2023-04-01T13:36:19;99191.69;;;13.71;97.33
7168;BME280;3625;51.762;14.320;2023-04-01T13:39:17;99201.13;;;13.92;96.52
7168;BME280;3625;51.762;14.320;2023-04-01T13:42:06;99225.63;;;14.28;95.65
7168;BME280;3625;51.762;14.320;2023-04-01T13:44:46;99222.63;;;14.50;95.10
7168;BME280;3625;51.762;14.320;2023-04-01T13:48:10;99225.66;;;14.74;94.90
7168;BME280;3625;51.762;14.320;2023-04-01T13:51:22;99206.06;;;14.61;94.90
7168;BME280;3625;51.762;14.320;2023-04-01T13:54:12;99227.56;;;14.72;94.90
7168;BME280;3625;51.762;14.320;2023-04-01T13:56:57;99224.00;;;14.87;95.53
7168;BME280;3625;51.762;14.320;2023-04-01T13:59:51;99214.31;;;15.00;94.29
7168;BME280;3625;51.762;14.320;2023-04-01T14:03:03;99211.09;;;15.09;93.40
7168;BME280;3625;51.762;14.320;2023-04-01T14:06:02;99228.41;;;14.72;94.81
7168;BME280;3625;51.762;14.320;2023-04-01T14:08:55;99222.03;;;14.61;96.50
7168;BME280;3625;51.762;14.320;2023-04-01T14:11:41;99241.59;;;13.66;100.00
7168;BME280;3625;51.762;14.320;2023-04-01T14:14:30;99231.94;;;13.47;100.00
7168;BME280;3625;51.762;14.320;2023-04-01T14:20:33;99235.34;;;13.49;100.00
7168;BME280;3625;51.762;14.320;2023-04-01T14:23:31;99231.81;;;13.16;100.00
7168;BME280;3625;51.762;14.320;2023-04-01T14:26:30;99192.94;;;13.15;100.00
7168;BME280;3625;51.762;14.320;2023-04-01T14:29:17;99237.81;;;13.70;100.00
7168;BME280;3625;51.762;14.320;2023-04-01T14:32:02;99177.47;;;13.06;100.00
7168;BME280;3625;51.762;14.320;2023-04-01T14:34:57;99230.34;;;13.28;100.00
7168;BME280;3625;51.762;14.320;2023-04-01T14:38:08;99203.94;;;12.90;100.00
7168;BME280;3625;51.762;14.320;2023-04-01T14:40:56;99231.44;;;13.56;100.00
7168;BME280;3625;51.762;14.320;2023-04-01T14:47:19;99250.78;;;13.08;100.00
7168;BME280;3625;51.762;14.320;2023-04-01T14:50:03;99226.81;;;13.10;100.00
7168;BME280;3625;51.762;14.320;2023-04-01T14:52:38;99254.09;;;12.96;100.00
7168;BME280;3625;51.762;14.320;2023-04-01T14:55:28;99252.44;;;12.94;100.00
7168;BME280;3625;51.762;14.320;2023-04-01T14:58:11;99194.34;;;12.19;100.00
7168;BME280;3625;51.762;14.320;2023-04-01T15:01:13;99267.59;;;12.38;100.00
7168;BME280;3625;51.762;14.320;2023-04-01T15:03:54;99274.50;;;12.24;100.00
7168;BME280;3625;51.762;14.320;2023-04-01T15:06:46;99280.44;;;12.29;100.00
7168;BME280;3625;51.762;14.320;2023-04-01T15:09:26;99272.38;;;12.49;100.00
7168;BME280;3625;51.762;14.320;2023-04-01T15:12:17;99184.53;;;11.64;100.00
7168;BME280;3625;51.762;14.320;2023-04-01T15:15:19;99279.00;;;12.03;100.00
7168;BME280;3625;51.762;14.320;2023-04-01T15:18:07;99286.03;;;11.85;100.00
7168;BME280;3625;51.762;14.320;2023-04-01T15:21:05;99290.56;;;11.83;100.00
7168;BME280;3625;51.762;14.320;2023-04-01T15:23:57;99276.19;;;11.68;100.00
7168;BME280;3625;51.762;14.320;2023-04-01T15:26:54;99258.22;;;11.56;100.00
7168;BME280;3625;51.762;14.320;2023-04-01T15:29:56;99291.22;;;11.68;100.00
7168;BME280;3625;51.762;14.320;2023-04-01T15:32:51;99295.34;;;11.55;100.00
7168;BME280;3625;51.762;14.320;2023-04-01T15:35:37;99296.78;;;11.62;100.00
7168;BME280;3625;51.762;14.320;2023-04-01T15:38:23;99175.66;;;10.89;100.00
7168;BME280;3625;51.762;14.320;2023-04-01T15:41:03;99162.84;;;10.59;100.00
7168;BME280;3625;51.762;14.320;2023-04-01T15:43:41;99210.34;;;10.81;100.00
7168;BME280;3625;51.762;14.320;2023-04-01T15:46:43;99212.56;;;10.72;100.00
7168;BME280;3625;51.762;14.320;2023-04-01T15:49:27;99220.56;;;10.70;100.00
7168;BME280;3625;51.762;14.320;2023-04-01T15:52:16;99321.72;;;11.17;100.00
7168;BME280;3625;51.762;14.320;2023-04-01T15:55:09;99295.44;;;10.92;100.00
7168;BME280;3625;51.762;14.320;2023-04-01T15:58:02;99289.34;;;10.90;100.00
7168;BME280;3625;51.762;14.320;2023-04-01T16:00:49;99338.47;;;11.18;100.00